createdAt,value
2022-09-05T00:03:05.404Z,4.32
2022-09-05T00:05:54.074Z,4.43
2022-09-05T00:08:38.033Z,4.20
2022-09-05T00:11:47.640Z,3.40
2022-09-05T00:15:14.601Z,3.33
2022-09-05T00:21:20.062Z,4.60
2022-09-05T00:24:27.973Z,3.88
2022-09-05T00:28:25.804Z,4.60
2022-09-05T00:31:54.712Z,4.25
2022-09-05T00:34:48.182Z,4.88
2022-09-05T00:37:50.188Z,5.20
2022-09-05T00:40:46.843Z,5.43
2022-09-05T00:43:24.058Z,4.47
2022-09-05T00:46:23.145Z,4.95
2022-09-05T00:49:14.157Z,3.83
2022-09-05T00:51:55.523Z,3.70
2022-09-05T00:54:53.527Z,4.18
2022-09-05T00:57:30.009Z,4.13
2022-09-05T01:00:10.808Z,4.50
2022-09-05T01:03:33.855Z,4.00
2022-09-05T01:06:31.900Z,5.50
2022-09-05T01:09:40.706Z,5.20
2022-09-05T01:15:24.181Z,5.32
2022-09-05T01:17:57.012Z,5.32
2022-09-05T01:20:39.363Z,4.15
2022-09-05T01:23:24.921Z,5.45
2022-09-05T01:26:11.744Z,4.90
2022-09-05T01:29:16.521Z,5.18
2022-09-05T01:32:05.097Z,5.90
2022-09-05T01:35:19.814Z,5.30
2022-09-05T01:38:04.970Z,5.18
2022-09-05T01:41:18.343Z,6.97
2022-09-05T01:44:19.589Z,4.95
2022-09-05T01:47:30.994Z,3.85
2022-09-05T01:50:19.583Z,4.88
2022-09-05T01:53:24.886Z,4.75
2022-09-05T01:56:22.490Z,4.57
2022-09-05T01:59:18.564Z,5.07
2022-09-05T02:02:20.950Z,4.70
2022-09-05T02:05:03.326Z,4.75
2022-09-05T02:08:15.034Z,3.83
2022-09-05T02:11:07.617Z,5.18
2022-09-05T02:13:34.623Z,3.95
2022-09-05T02:16:43.648Z,4.65
2022-09-05T02:19:14.339Z,4.97
2022-09-05T02:22:01.997Z,4.97
2022-09-05T02:24:31.724Z,4.68
2022-09-05T02:28:05.064Z,3.83
2022-09-05T02:30:24.553Z,3.90
2022-09-05T02:33:22.917Z,3.72
2022-09-05T02:36:18.582Z,5.03
2022-09-05T02:45:00.498Z,5.18
2022-09-05T02:45:21.088Z,5.32
2022-09-05T02:45:32.902Z,5.60
2022-09-05T02:48:27.456Z,4.88
2022-09-05T02:57:25.188Z,4.65
2022-09-05T02:57:36.178Z,4.65
2022-09-05T02:58:05.188Z,3.97
2022-09-05T03:00:51.856Z,5.15
2022-09-05T03:03:43.269Z,4.70
2022-09-05T03:06:39.666Z,5.03
2022-09-05T03:10:00.906Z,4.75
2022-09-05T03:12:43.481Z,5.07
2022-09-05T03:16:08.334Z,4.82
2022-09-05T03:19:26.612Z,5.82
2022-09-05T03:22:37.040Z,5.43
2022-09-05T03:25:22.352Z,7.00
2022-09-05T03:28:26.518Z,7.28
2022-09-05T03:31:30.512Z,6.00
2022-09-05T03:34:22.141Z,5.95
2022-09-05T03:37:35.307Z,6.72
2022-09-05T03:40:35.797Z,5.50
2022-09-05T03:43:37.804Z,5.80
2022-09-05T03:46:36.430Z,7.55
2022-09-05T03:51:56.812Z,6.75
2022-09-05T03:57:25.335Z,5.10
2022-09-05T03:57:28.079Z,5.68
2022-09-05T03:59:34.894Z,5.90
2022-09-05T04:07:01.998Z,6.45
2022-09-05T04:08:17.039Z,8.52
2022-09-05T04:08:42.807Z,8.13
2022-09-05T04:11:40.558Z,7.90
2022-09-05T04:14:28.831Z,6.35
2022-09-05T04:17:08.568Z,6.45
2022-09-05T04:19:44.239Z,6.93
2022-09-05T04:22:28.156Z,5.93
2022-09-05T04:25:39.989Z,5.80
2022-09-05T04:28:54.947Z,4.85
2022-09-05T04:31:44.027Z,4.93
2022-09-05T04:34:42.527Z,5.15
2022-09-05T04:37:29.437Z,5.05
2022-09-05T04:40:33.097Z,4.40
2022-09-05T04:43:10.014Z,4.60
2022-09-05T04:45:45.243Z,5.57
2022-09-05T04:48:20.112Z,6.93
2022-09-05T04:51:26.516Z,4.82
2022-09-05T04:54:33.249Z,5.78
2022-09-05T04:57:39.271Z,4.97
2022-09-05T05:06:04.497Z,4.68
2022-09-05T05:06:10.493Z,4.35
2022-09-05T05:06:47.249Z,3.30
2022-09-05T05:09:24.582Z,2.80
2022-09-05T05:17:53.873Z,3.67
2022-09-05T05:18:14.830Z,3.10
2022-09-05T05:18:41.152Z,3.25
2022-09-05T05:21:15.954Z,3.22
2022-09-05T05:24:01.104Z,3.20
2022-09-05T05:26:56.800Z,2.63
2022-09-05T05:29:52.599Z,2.33
2022-09-05T05:32:45.749Z,2.63
2022-09-05T05:35:32.966Z,3.50
2022-09-05T05:38:17.543Z,2.80
2022-09-05T05:40:59.509Z,2.22
2022-09-05T05:43:40.037Z,2.35
2022-09-05T05:46:25.502Z,2.60
2022-09-05T05:49:03.278Z,2.90
2022-09-05T05:52:01.497Z,2.40
2022-09-05T05:54:45.770Z,3.05
2022-09-05T05:57:45.699Z,2.83
2022-09-05T06:00:51.411Z,2.55
2022-09-05T06:03:54.936Z,3.30
2022-09-05T06:06:43.650Z,3.75
2022-09-05T06:12:53.617Z,3.08
2022-09-05T06:15:04.903Z,4.10
2022-09-05T06:16:33.323Z,4.32
2022-09-05T06:19:21.778Z,3.85
2022-09-05T06:22:24.138Z,3.85
2022-09-05T06:25:56.554Z,3.97
2022-09-05T06:28:54.344Z,3.63
2022-09-05T06:32:14.934Z,3.55
2022-09-05T06:35:36.942Z,2.92
2022-09-05T06:38:26.382Z,3.08
2022-09-05T06:41:40.384Z,3.47
2022-09-05T06:44:47.257Z,3.53
2022-09-05T06:50:27.630Z,3.08
2022-09-05T06:53:20.011Z,4.32
2022-09-05T06:56:26.717Z,3.15
2022-09-05T06:59:39.108Z,3.72
2022-09-05T07:02:58.333Z,3.78
2022-09-05T07:05:42.733Z,3.45
2022-09-05T07:09:17.404Z,3.70
2022-09-05T07:11:53.325Z,3.05
2022-09-05T07:14:27.462Z,3.28
2022-09-05T07:17:32.395Z,2.80
2022-09-05T07:20:01.992Z,3.00
2022-09-05T07:22:58.027Z,3.25
2022-09-05T07:25:48.832Z,2.50
2022-09-05T07:28:28.154Z,2.97
2022-09-05T07:31:37.393Z,2.75
2022-09-05T07:34:21.263Z,4.18
2022-09-05T07:37:14.097Z,3.05
2022-09-05T07:39:49.825Z,2.88
2022-09-05T07:42:36.491Z,2.90
2022-09-05T07:45:11.212Z,2.70
2022-09-05T07:47:51.143Z,3.55
2022-09-05T07:54:02.180Z,2.80
2022-09-05T07:56:49.149Z,2.08
2022-09-05T07:56:58.768Z,2.28
2022-09-05T07:58:51.982Z,2.50
2022-09-05T08:01:21.797Z,2.70
2022-09-05T08:03:56.663Z,2.63
2022-09-05T08:06:50.722Z,2.90
2022-09-05T08:10:05.246Z,2.67
2022-09-05T08:12:44.957Z,3.03
2022-09-05T08:16:02.808Z,2.33
2022-09-05T08:18:53.641Z,2.05
2022-09-05T08:21:48.278Z,1.75
2022-09-05T08:24:43.622Z,1.80
2022-09-05T08:27:44.084Z,1.95
2022-09-05T08:30:24.748Z,1.25
2022-09-05T08:33:11.949Z,1.27
2022-09-05T08:36:29.244Z,1.08
2022-09-05T08:39:02.136Z,1.55
2022-09-05T08:41:51.172Z,1.60
2022-09-05T08:46:40.343Z,1.10
2022-09-05T08:48:01.612Z,1.52
2022-09-05T08:50:44.651Z,1.30
2022-09-05T08:53:45.347Z,1.85
2022-09-05T08:56:37.525Z,1.80
2022-09-05T09:00:19.656Z,2.05
2022-09-05T09:02:48.393Z,1.48
2022-09-05T09:06:13.847Z,1.52
2022-09-05T09:09:05.413Z,1.65
2022-09-05T09:11:56.738Z,1.95
2022-09-05T09:14:44.821Z,1.98
2022-09-05T09:17:42.279Z,1.58
2022-09-05T09:20:30.405Z,1.65
2022-09-05T09:23:31.960Z,1.40
2022-09-05T09:26:12.721Z,1.50
2022-09-05T09:28:53.311Z,1.58
2022-09-05T09:31:45.961Z,1.48
2022-09-05T09:34:25.030Z,1.90
2022-09-05T09:37:16.648Z,2.03
2022-09-05T09:40:08.669Z,1.55
2022-09-05T09:42:53.395Z,1.67
2022-09-05T09:45:44.935Z,2.13
2022-09-05T09:49:02.530Z,1.40
2022-09-05T09:52:08.015Z,1.97
2022-09-05T09:55:43.019Z,1.45
2022-09-05T09:58:46.893Z,1.58
2022-09-05T10:01:36.079Z,1.58
2022-09-05T10:10:37.946Z,1.65
2022-09-05T10:10:54.452Z,1.73
2022-09-05T10:11:40.179Z,1.67
2022-09-05T10:14:49.249Z,1.67
2022-09-05T10:17:50.735Z,1.27
2022-09-05T10:21:17.103Z,1.42
2022-09-05T10:23:56.585Z,1.02
2022-09-05T10:26:47.360Z,1.48
2022-09-05T10:29:41.413Z,1.00
2022-09-05T10:35:05.160Z,1.88
2022-09-05T10:35:28.677Z,1.13
2022-09-05T10:38:31.612Z,1.40
2022-09-05T10:41:21.021Z,1.52
2022-09-05T10:44:02.919Z,1.55
2022-09-05T10:47:06.148Z,1.67
2022-09-05T10:49:47.037Z,1.73
2022-09-05T10:52:33.198Z,3.28
2022-09-05T10:55:18.540Z,1.58
2022-09-05T10:58:13.038Z,1.38
2022-09-05T11:02:28.102Z,1.08
2022-09-05T11:07:01.890Z,1.35
2022-09-05T11:09:38.960Z,1.20
2022-09-05T11:12:38.035Z,1.55
2022-09-05T11:15:22.589Z,1.50
2022-09-05T11:18:33.769Z,1.35
2022-09-05T11:21:28.657Z,2.20
2022-09-05T11:24:27.119Z,3.17
2022-09-05T11:27:36.507Z,2.38
2022-09-05T11:30:30.310Z,1.75
2022-09-05T11:39:53.152Z,0.85
2022-09-05T11:40:02.703Z,1.38
2022-09-05T11:40:05.889Z,1.63
2022-09-05T11:42:36.387Z,1.08
2022-09-05T11:45:24.436Z,1.30
2022-09-05T11:48:06.455Z,0.85
2022-09-05T11:50:57.391Z,0.98
2022-09-05T11:54:08.584Z,1.10
2022-09-05T11:57:32.459Z,1.90
2022-09-05T12:00:33.171Z,1.20
2022-09-05T12:03:41.383Z,0.93
2022-09-05T12:07:24.096Z,1.50
2022-09-05T12:10:57.955Z,1.13
2022-09-05T12:13:37.812Z,1.30
2022-09-05T12:16:46.338Z,1.65
2022-09-05T12:19:56.333Z,1.10
2022-09-05T12:22:34.467Z,0.88
2022-09-05T12:25:26.456Z,1.40
2022-09-05T12:29:26.166Z,1.00
2022-09-05T12:32:37.709Z,1.20
2022-09-05T12:36:11.941Z,1.27
2022-09-05T12:40:04.674Z,0.73
2022-09-05T12:41:32.699Z,0.90
2022-09-05T12:43:57.403Z,0.93
2022-09-05T12:46:24.806Z,0.68
2022-09-05T12:49:07.674Z,1.25
2022-09-05T12:51:46.991Z,1.08
2022-09-05T12:54:45.019Z,0.77
2022-09-05T13:02:11.279Z,0.82
2022-09-05T13:03:06.074Z,2.45
2022-09-05T13:03:29.792Z,1.38
2022-09-05T13:06:30.475Z,1.30
2022-09-05T13:09:41.744Z,1.33
2022-09-05T13:15:00.652Z,1.43
2022-09-05T13:15:31.810Z,1.17
2022-09-05T13:18:16.220Z,1.13
2022-09-05T13:20:50.882Z,1.15
2022-09-05T13:23:39.144Z,1.02
2022-09-05T13:26:23.357Z,1.08
2022-09-05T13:29:10.541Z,0.80
2022-09-05T13:37:54.693Z,1.25
2022-09-05T13:38:06.613Z,0.90
2022-09-05T13:38:30.829Z,1.00
2022-09-05T13:40:40.585Z,1.23
2022-09-05T13:43:15.391Z,1.08
2022-09-05T13:46:10.264Z,0.90
2022-09-05T13:49:30.785Z,1.02
2022-09-05T13:51:59.789Z,0.80
2022-09-05T13:55:00.770Z,0.85
2022-09-05T13:57:45.988Z,1.63
2022-09-05T14:00:27.385Z,0.75
2022-09-05T14:03:38.987Z,1.23
2022-09-05T14:06:46.056Z,0.93
2022-09-05T14:09:54.760Z,0.98
2022-09-05T14:12:30.658Z,1.05
2022-09-05T14:15:24.889Z,1.35
2022-09-05T14:18:21.420Z,1.20
2022-09-05T14:21:15.565Z,0.90
2022-09-05T14:24:16.979Z,0.60
2022-09-05T14:27:10.767Z,1.15
2022-09-05T14:30:15.558Z,1.00
2022-09-05T14:37:44.971Z,0.85
2022-09-05T14:37:54.322Z,1.23
2022-09-05T14:39:19.932Z,1.00
2022-09-05T14:42:19.521Z,1.75
2022-09-05T14:45:17.214Z,1.65
2022-09-05T14:48:02.560Z,1.30
2022-09-05T14:50:59.688Z,1.08
2022-09-05T14:57:23.951Z,1.35
2022-09-05T15:02:50.864Z,1.42
2022-09-05T15:02:52.077Z,1.38
2022-09-05T15:05:44.804Z,1.58
2022-09-05T15:11:23.907Z,1.77
2022-09-05T15:12:17.099Z,1.80
2022-09-05T15:14:10.499Z,1.40
2022-09-05T15:16:42.877Z,1.75
2022-09-05T15:19:10.988Z,2.20
2022-09-05T15:21:40.567Z,1.83
2022-09-05T15:24:24.952Z,2.13
2022-09-05T15:26:56.061Z,1.00
2022-09-05T15:29:26.898Z,2.33
2022-09-05T15:32:13.577Z,0.85
2022-09-05T15:34:40.688Z,1.83
2022-09-05T15:37:36.910Z,2.30
2022-09-05T15:40:22.995Z,2.47
2022-09-05T15:43:00.085Z,1.08
2022-09-05T15:45:36.711Z,1.35
2022-09-05T15:48:14.859Z,1.35
2022-09-05T15:50:55.706Z,2.10
2022-09-05T15:53:36.319Z,1.50
2022-09-05T15:56:09.536Z,1.50
2022-09-05T15:58:59.017Z,2.40
2022-09-05T16:01:58.067Z,1.88
2022-09-05T16:10:27.087Z,2.80
2022-09-05T16:10:42.866Z,2.92
2022-09-05T16:10:49.541Z,2.75
2022-09-05T16:13:16.659Z,1.70
2022-09-05T16:18:58.588Z,2.00
2022-09-05T16:23:18.433Z,3.05
2022-09-05T16:23:31.903Z,2.10
2022-09-05T16:24:59.506Z,2.30
2022-09-05T16:27:57.215Z,1.83
2022-09-05T16:30:30.528Z,2.03
2022-09-05T16:33:24.960Z,2.30
2022-09-05T16:35:58.347Z,1.77
2022-09-05T16:38:50.623Z,1.52
2022-09-05T16:41:26.837Z,1.75
2022-09-05T16:44:01.298Z,1.92
2022-09-05T16:47:06.825Z,2.25
2022-09-05T16:50:01.433Z,2.25
2022-09-05T16:52:53.611Z,2.53
2022-09-05T16:55:53.713Z,3.13
2022-09-05T16:58:48.494Z,2.47
2022-09-05T17:01:54.926Z,2.60
2022-09-05T17:05:07.118Z,2.10
2022-09-05T17:07:52.593Z,2.38
2022-09-05T17:10:49.326Z,2.08
2022-09-05T17:13:40.374Z,2.65
2022-09-05T17:16:43.601Z,3.35
2022-09-05T17:19:21.474Z,3.10
2022-09-05T17:26:56.921Z,3.70
2022-09-05T17:29:26.024Z,3.63
2022-09-05T17:30:35.857Z,5.28
2022-09-05T17:31:55.205Z,3.97
2022-09-05T17:34:38.076Z,4.72
2022-09-05T17:37:35.539Z,2.60
2022-09-05T17:40:25.632Z,2.72
2022-09-05T17:43:28.392Z,3.35
2022-09-05T17:46:19.543Z,3.03
2022-09-05T17:48:52.815Z,2.65
2022-09-05T17:51:51.552Z,3.35
2022-09-05T17:54:28.306Z,2.80
2022-09-05T17:56:55.861Z,1.98
2022-09-05T17:59:27.588Z,2.65
2022-09-05T18:02:07.271Z,2.10
2022-09-05T18:04:46.246Z,2.50
2022-09-05T18:07:19.554Z,2.63
2022-09-05T18:10:14.699Z,2.80
2022-09-05T18:13:12.853Z,3.20
2022-09-05T18:15:31.778Z,3.22
2022-09-05T18:20:52.567Z,3.50
2022-09-05T18:23:44.375Z,3.05
2022-09-05T18:26:25.573Z,2.70
2022-09-05T18:28:59.211Z,3.03
2022-09-05T18:31:51.734Z,2.88
2022-09-05T18:34:19.057Z,2.80
2022-09-05T18:36:51.943Z,1.92
2022-09-05T18:39:37.474Z,1.60
2022-09-05T18:42:33.069Z,2.08
2022-09-05T18:45:17.144Z,2.13
2022-09-05T18:47:59.018Z,2.53
2022-09-05T18:50:34.420Z,2.80
2022-09-05T18:53:09.976Z,2.70
2022-09-05T18:57:19.793Z,2.70
2022-09-05T18:59:36.461Z,3.10
2022-09-05T19:02:51.264Z,3.88
2022-09-05T19:06:36.663Z,5.85
2022-09-05T19:09:02.653Z,5.28
2022-09-05T19:11:52.112Z,4.50
2022-09-05T19:14:42.720Z,3.67
2022-09-05T19:17:23.080Z,3.42
2022-09-05T19:20:33.321Z,3.13
2022-09-05T19:23:12.739Z,3.15
2022-09-05T19:25:46.022Z,3.05
2022-09-05T19:36:46.203Z,3.30
2022-09-05T19:36:52.113Z,4.07
2022-09-05T19:36:55.834Z,3.53
2022-09-05T19:37:47.819Z,4.22
2022-09-05T19:47:28.040Z,4.15
2022-09-05T19:47:34.263Z,4.20
2022-09-05T19:47:37.697Z,4.57
2022-09-05T19:49:13.134Z,3.70
2022-09-05T19:51:41.547Z,3.20
2022-09-05T19:54:26.942Z,4.05
2022-09-05T19:57:03.078Z,3.67
2022-09-05T19:59:39.718Z,3.72
2022-09-05T20:02:21.934Z,4.00
2022-09-05T20:04:53.547Z,7.43
2022-09-05T20:07:32.403Z,4.45
2022-09-05T20:10:03.353Z,4.47
2022-09-05T20:12:33.821Z,4.30
2022-09-05T20:15:24.705Z,4.15
2022-09-05T20:17:55.125Z,4.97
2022-09-05T20:20:29.995Z,4.53
2022-09-05T20:23:06.937Z,4.60
2022-09-05T20:25:43.760Z,4.07
2022-09-05T20:28:22.192Z,5.13
2022-09-05T20:30:55.768Z,4.70
2022-09-05T20:33:47.966Z,4.68
2022-09-05T20:42:36.871Z,4.50
2022-09-05T20:43:30.951Z,4.28
2022-09-05T20:43:31.715Z,3.58
2022-09-05T20:46:17.488Z,3.75
2022-09-05T20:54:10.245Z,4.07
2022-09-05T20:54:13.820Z,3.70
2022-09-05T20:54:41.073Z,3.83
2022-09-05T20:57:25.655Z,3.88
2022-09-05T21:00:03.777Z,3.53
2022-09-05T21:02:33.258Z,3.03
2022-09-05T21:05:20.816Z,3.60
2022-09-05T21:07:59.191Z,3.77
2022-09-05T21:10:56.019Z,4.00
2022-09-05T21:13:37.475Z,4.63
2022-09-05T21:16:26.530Z,4.43
2022-09-05T21:18:53.839Z,4.47
2022-09-05T21:21:29.322Z,5.70
2022-09-05T21:24:15.904Z,4.30
2022-09-05T21:26:44.714Z,4.45
2022-09-05T21:29:11.706Z,3.72
2022-09-05T21:31:57.483Z,4.00
2022-09-05T21:34:44.757Z,3.97
2022-09-05T21:37:15.275Z,4.30
2022-09-05T21:39:58.497Z,4.38
2022-09-05T21:42:54.753Z,3.83
2022-09-05T21:47:34.759Z,3.90
2022-09-05T21:48:15.955Z,5.68
2022-09-05T21:50:53.132Z,4.88
2022-09-05T21:59:10.280Z,5.25
2022-09-05T21:59:28.694Z,5.20
2022-09-05T22:02:07.645Z,4.20
2022-09-05T22:04:41.063Z,5.22
2022-09-05T22:07:19.469Z,5.47
2022-09-05T22:10:05.208Z,4.18
2022-09-05T22:12:35.040Z,5.15
2022-09-05T22:15:26.907Z,5.65
2022-09-05T22:18:02.579Z,4.33
2022-09-05T22:20:53.520Z,5.05
2022-09-05T22:23:36.463Z,5.75
2022-09-05T22:26:07.659Z,5.88
2022-09-05T22:28:38.148Z,3.90
2022-09-05T22:31:07.230Z,4.70
2022-09-05T22:33:35.772Z,4.55
2022-09-05T22:36:04.976Z,5.15
2022-09-05T22:38:32.796Z,5.15
2022-09-05T22:41:29.994Z,5.35
2022-09-05T22:43:58.399Z,4.43
2022-09-05T22:46:25.607Z,4.18
2022-09-05T22:48:52.742Z,5.10
2022-09-05T22:51:19.841Z,4.43
2022-09-05T22:53:47.005Z,3.88
2022-09-05T22:56:30.783Z,3.50
2022-09-05T22:58:58.078Z,6.25
2022-09-05T23:01:25.400Z,3.70
2022-09-05T23:03:52.884Z,4.43
2022-09-05T23:06:20.099Z,3.80
2022-09-05T23:08:47.268Z,3.70
2022-09-05T23:11:17.042Z,3.55
2022-09-05T23:13:45.104Z,3.55
2022-09-05T23:16:12.342Z,4.45
2022-09-05T23:18:39.860Z,4.35
2022-09-05T23:21:11.562Z,4.55
2022-09-05T23:23:42.101Z,3.75
2022-09-05T23:26:11.903Z,3.92
2022-09-05T23:28:43.355Z,3.78
2022-09-05T23:31:12.200Z,4.13
2022-09-05T23:33:44.295Z,4.30
2022-09-05T23:36:13.210Z,3.20
2022-09-05T23:38:42.199Z,2.92
2022-09-05T23:41:13.594Z,3.92
2022-09-05T23:43:41.267Z,4.78
2022-09-05T23:46:09.098Z,3.72
2022-09-05T23:48:36.393Z,3.67
2022-09-05T23:51:09.748Z,3.20
2022-09-05T23:53:37.437Z,3.80
2022-09-05T23:56:07.165Z,2.63
2022-09-05T23:58:35.487Z,3.15
